This is the latest recevied weather packets stored in our database for station/object OK0BPL-5. If no packets are shown the sender has not sent any weather packets the latest 1 day(s).
| Time | Temp. | Humidity | Pressure | Rain* | Wind** | Luminosity | Snow |
|---|---|---|---|---|---|---|---|
| 1788516697 | 21.67° C | 66% | 1012.1 hPa | 0 mm | 3.13 m/s, 222° | 91 W/m² | - |
| 1788516697 | 21.67° C | 66% | 1012.1 hPa | 0 mm | 3.13 m/s, 222° | 91 W/m² | - |
| 1788515798 | 21.67° C | 68% | 1011.9 hPa | 0 mm | 5.36 m/s, 222° | 112 W/m² | - |
| 1788515797 | 21.67° C | 68% | 1011.9 hPa | 0 mm | 5.36 m/s, 222° | 112 W/m² | - |
| 1788515797 | 21.67° C | 68% | 1011.9 hPa | 0 mm | 5.36 m/s, 222° | 112 W/m² | - |
| 1788514898 | 21.11° C | 69% | 1012.4 hPa | 0 mm | 3.13 m/s, 222° | 69 W/m² | - |
| 1788514897 | 21.11° C | 69% | 1012.4 hPa | 0 mm | 3.13 m/s, 222° | 69 W/m² | - |
| 1788514897 | 21.11° C | 69% | 1012.4 hPa | 0 mm | 3.13 m/s, 222° | 69 W/m² | - |
| 1788513998 | 21.11° C | 69% | 1012.3 hPa | 0 mm | 3.13 m/s, 222° | 89 W/m² | - |
| 1788513997 | 21.11° C | 69% | 1012.3 hPa | 0 mm | 3.13 m/s, 222° | 89 W/m² | - |
| 1788513997 | 21.11° C | 69% | 1012.3 hPa | 0 mm | 3.13 m/s, 222° | 89 W/m² | - |
| 1788513098 | 21.11° C | 69% | 1012.8 hPa | 0 mm | 3.13 m/s, 222° | 124 W/m² | - |
| 1788513097 | 21.11° C | 69% | 1012.8 hPa | 0 mm | 3.13 m/s, 222° | 124 W/m² | - |
| 1788513097 | 21.11° C | 69% | 1012.8 hPa | 0 mm | 3.13 m/s, 222° | 124 W/m² | - |
| 1788512198 | 21.11° C | 69% | 1012.9 hPa | 0 mm | 3.58 m/s, 222° | 127 W/m² | - |
| 1788512197 | 21.11° C | 69% | 1012.9 hPa | 0 mm | 3.58 m/s, 222° | 127 W/m² | - |
| 1788512197 | 21.11° C | 69% | 1012.9 hPa | 0 mm | 3.58 m/s, 222° | 127 W/m² | - |
| 1788511299 | 20.56° C | 71% | 1013.3 hPa | 0 mm | 2.68 m/s, 222° | 108 W/m² | - |
| 1788511298 | 20.56° C | 71% | 1013.3 hPa | 0 mm | 2.68 m/s, 222° | 108 W/m² | - |
| 1788510397 | 20° C | 72% | 1013.6 hPa | 0 mm | 3.13 m/s, 222° | 66 W/m² | - |
| 1788509498 | 19.44° C | 72% | 1013.8 hPa | 0 mm | 3.13 m/s, 222° | 84 W/m² | - |
| 1788509497 | 19.44° C | 72% | 1013.8 hPa | 0 mm | 3.13 m/s, 222° | 84 W/m² | - |
| 1788509497 | 19.44° C | 72% | 1013.8 hPa | 0 mm | 3.13 m/s, 222° | 84 W/m² | - |
| 1788508598 | 19.44° C | 73% | 1013.8 hPa | 0 mm | 4.47 m/s, 222° | 66 W/m² | - |
| 1788508597 | 19.44° C | 73% | 1013.8 hPa | 0 mm | 4.47 m/s, 222° | 66 W/m² | - |
* Rain latest hour (hover to see other rain measurements)
** Current wind speed in m/s (hover to see current wind gust speed)